Time;durP1;ratioP1;P1;durP2;ratioP2;P2;SDS_P1;SDS_P2;PMS_P1;PMS_P2;Temp;Humidity;BMP_temperature;BMP_pressure;BME280_temperature;BME280_humidity;BME280_pressure;Samples;Min_cycle;Max_cycle;Signal;HPM_P1;HPM_P2
2021/01/20 00:02:07;;;;;;;145.93;68.37;;;-0.80;93.30;;;;;;4983468;28;20692;-78
2021/01/20 00:04:36;;;;;;;152.63;70.93;;;-0.70;93.30;;;;;;4967686;28;20221;-80
2021/01/20 00:07:04;;;;;;;140.37;66.67;;;-0.70;93.30;;;;;;4970659;28;20208;-80
2021/01/20 00:09:31;;;;;;;135.17;63.60;;;-0.70;93.30;;;;;;4967774;28;20352;-80
2021/01/20 00:11:59;;;;;;;143.23;66.03;;;-0.70;93.30;;;;;;4988082;28;20752;-77
2021/01/20 00:14:27;;;;;;;137.50;63.80;;;-0.60;93.30;;;;;;4989934;28;20262;-79
2021/01/20 00:16:55;;;;;;;134.30;65.77;;;-0.70;93.30;;;;;;4982177;28;20206;-80
2021/01/20 00:19:22;;;;;;;135.27;63.83;;;-0.60;93.40;;;;;;4997865;28;20284;-79
2021/01/20 00:21:51;;;;;;;122.07;61.73;;;-0.60;93.30;;;;;;4986080;28;20211;-81
2021/01/20 00:24:18;;;;;;;135.17;62.80;;;-0.60;93.30;;;;;;4983988;28;20238;-79
2021/01/20 00:26:46;;;;;;;128.47;62.13;;;-0.60;93.30;;;;;;4995715;28;20303;-80
2021/01/20 00:29:14;;;;;;;132.63;63.20;;;-0.60;93.30;;;;;;4988428;28;20290;-79
2021/01/20 00:31:41;;;;;;;128.53;62.60;;;-0.60;93.30;;;;;;4984286;28;20241;-77
2021/01/20 00:34:09;;;;;;;127.63;63.07;;;-0.60;93.30;;;;;;4988015;28;20227;-80
2021/01/20 00:36:37;;;;;;;123.57;61.43;;;-0.60;93.30;;;;;;4983308;28;20667;-77
2021/01/20 00:39:07;;;;;;;118.17;57.93;;;-0.60;93.30;;;;;;4984654;28;20573;-80
2021/01/20 00:41:34;;;;;;;122.83;58.03;;;-0.60;93.30;;;;;;4980849;28;21242;-79
2021/01/20 00:44:02;;;;;;;121.33;57.13;;;-0.60;93.30;;;;;;4983350;28;20626;-79
2021/01/20 00:46:30;;;;;;;105.90;55.27;;;-0.60;93.30;;;;;;4993353;28;20501;-80
2021/01/20 00:48:57;;;;;;;107.40;54.13;;;-0.60;93.30;;;;;;4969638;28;20390;-80
2021/01/20 00:51:25;;;;;;;120.50;57.33;;;-0.60;93.30;;;;;;4992461;28;20209;-80
2021/01/20 00:53:52;;;;;;;107.30;55.27;;;-0.60;93.30;;;;;;4990698;28;20949;-79
2021/01/20 00:56:21;;;;;;;110.43;54.50;;;-0.60;93.20;;;;;;4982588;28;20220;-80
2021/01/20 00:58:49;;;;;;;113.43;52.07;;;-0.60;93.20;;;;;;4977982;28;20222;-81
2021/01/20 01:01:16;;;;;;;103.03;52.17;;;-0.60;93.20;;;;;;4990973;28;20221;-78
2021/01/20 01:03:46;;;;;;;106.63;53.53;;;-0.60;93.20;;;;;;4975158;28;20258;-80
2021/01/20 01:06:16;;;;;;;103.97;51.47;;;-0.60;93.30;;;;;;4982594;28;20533;-80
2021/01/20 01:08:44;;;;;;;103.37;50.43;;;-0.60;93.20;;;;;;4983495;28;20217;-80
2021/01/20 01:11:12;;;;;;;106.77;51.10;;;-0.60;93.20;;;;;;4987257;28;20238;-80
2021/01/20 01:13:40;;;;;;;100.97;50.23;;;-0.60;93.20;;;;;;4987749;28;20201;-82
2021/01/20 01:16:08;;;;;;;99.33;49.77;;;-0.60;93.20;;;;;;4983529;28;20238;-80
2021/01/20 01:18:36;;;;;;;103.00;48.03;;;-0.60;93.20;;;;;;4990403;28;20419;-81
2021/01/20 01:21:04;;;;;;;98.17;48.83;;;-0.60;93.20;;;;;;4985675;28;20471;-79
2021/01/20 01:23:33;;;;;;;97.40;47.80;;;-0.60;93.20;;;;;;4987868;28;20202;-79
2021/01/20 01:26:01;;;;;;;98.37;47.47;;;-0.60;93.20;;;;;;4986019;28;20792;-78
2021/01/20 01:28:29;;;;;;;90.87;47.07;;;-0.60;93.20;;;;;;4987075;28;20476;-80
2021/01/20 01:30:59;;;;;;;94.67;47.77;;;-0.60;93.20;;;;;;4977775;28;20296;-80
2021/01/20 01:33:27;;;;;;;106.10;49.87;;;-0.60;93.20;;;;;;4986026;28;20211;-80
2021/01/20 01:35:54;;;;;;;93.50;46.93;;;-0.80;93.20;;;;;;4988325;28;20280;-80
2021/01/20 01:38:22;;;;;;;93.47;43.17;;;-0.60;93.20;;;;;;4983712;28;20240;-80
2021/01/20 01:40:50;;;;;;;93.07;46.33;;;-0.60;93.20;;;;;;4980083;28;20233;-80
2021/01/20 01:43:17;;;;;;;84.37;44.00;;;-0.60;93.20;;;;;;4966603;28;20206;-79
2021/01/20 01:45:45;;;;;;;94.63;43.97;;;-0.60;93.20;;;;;;4996071;28;20187;-79
2021/01/20 01:48:14;;;;;;;85.17;44.27;;;-0.60;93.20;;;;;;5002148;28;20194;-81
2021/01/20 01:50:43;;;;;;;89.53;44.07;;;-0.60;93.20;;;;;;4996341;28;20466;-79
2021/01/20 01:53:13;;;;;;;88.77;44.63;;;-0.60;93.20;;;;;;4973668;28;20257;-78
2021/01/20 01:55:41;;;;;;;88.70;44.43;;;-0.60;93.20;;;;;;4980920;28;20226;-81
2021/01/20 01:58:09;;;;;;;84.57;41.47;;;-0.60;93.10;;;;;;4966725;28;20206;-80
2021/01/20 02:00:37;;;;;;;80.27;41.53;;;-0.60;93.10;;;;;;4980967;28;20564;-79
2021/01/20 02:03:05;;;;;;;84.17;41.90;;;-0.60;93.10;;;;;;4978309;28;20293;-81
2021/01/20 02:05:34;;;;;;;84.30;42.77;;;-0.60;93.10;;;;;;4976942;28;20197;-80
2021/01/20 02:08:04;;;;;;;84.30;41.83;;;-0.60;93.10;;;;;;4977406;28;20201;-81
2021/01/20 02:10:33;;;;;;;91.57;42.50;;;-0.70;93.10;;;;;;4974376;28;20265;-79
2021/01/20 02:13:31;;;;;;;86.40;40.27;;;-0.70;93.10;;;;;;4986883;28;20208;-80
2021/01/20 02:16:06;;;;;;;79.40;40.97;;;-0.70;93.10;;;;;;4982100;28;20202;-79
2021/01/20 02:18:36;;;;;;;81.20;41.03;;;-0.70;93.10;;;;;;4979361;28;20203;-80
2021/01/20 02:21:43;;;;;;;89.97;42.47;;;-0.70;93.10;;;;;;4966555;28;20217;-79
2021/01/20 02:24:13;;;;;;;86.90;42.60;;;-0.70;93.10;;;;;;4965424;28;20301;-80
2021/01/20 02:26:56;;;;;;;77.40;38.60;;;-0.70;93.10;;;;;;5001239;28;20641;-79
2021/01/20 02:29:36;;;;;;;83.77;41.03;;;-0.70;93.10;;;;;;5000412;28;20217;-81
2021/01/20 02:32:07;;;;;;;85.77;41.63;;;-0.70;93.00;;;;;;4986701;28;20273;-79
2021/01/20 02:34:37;;;;;;;83.67;41.23;;;-0.70;93.00;;;;;;4989650;28;20284;-79
2021/01/20 02:37:07;;;;;;;89.97;40.63;;;-0.80;93.00;;;;;;4985390;28;20513;-80
2021/01/20 02:39:34;;;;;;;78.07;39.60;;;-0.80;93.00;;;;;;4991853;28;20794;-78
2021/01/20 02:42:04;;;;;;;81.73;41.30;;;-0.80;93.00;;;;;;4961278;28;20210;-82
2021/01/20 02:44:35;;;;;;;81.57;41.17;;;-0.80;93.00;;;;;;4974479;28;20590;-79
2021/01/20 02:47:09;;;;;;;79.90;39.67;;;-0.80;93.00;;;;;;4987809;28;20225;-80
2021/01/20 02:49:38;;;;;;;81.43;41.03;;;-0.80;93.00;;;;;;4970372;28;20562;-80
2021/01/20 02:52:13;;;;;;;89.27;41.90;;;-0.80;93.00;;;;;;4984027;28;20197;-81
2021/01/20 02:54:42;;;;;;;85.07;40.17;;;-0.80;93.00;;;;;;4984588;28;20457;-80
2021/01/20 02:57:12;;;;;;;84.47;40.27;;;-0.80;93.00;;;;;;4979903;28;20214;-80
2021/01/20 02:59:44;;;;;;;81.93;40.07;;;-0.80;93.00;;;;;;4989928;28;20206;-80
2021/01/20 03:02:14;;;;;;;83.07;39.37;;;-0.80;93.00;;;;;;4986695;28;20207;-82
2021/01/20 03:04:44;;;;;;;90.20;42.47;;;-0.60;93.10;;;;;;4991403;28;20201;-79
2021/01/20 03:07:14;;;;;;;77.50;39.80;;;-0.80;93.00;;;;;;4985034;28;20210;-80
2021/01/20 03:09:42;;;;;;;83.97;40.07;;;-0.80;93.10;;;;;;4979776;28;20218;-79
2021/01/20 03:12:10;;;;;;;79.57;40.73;;;-0.80;93.00;;;;;;4998386;28;20186;-80
2021/01/20 03:14:40;;;;;;;74.80;39.47;;;-0.80;93.00;;;;;;4989970;28;20201;-79
2021/01/20 03:17:08;;;;;;;82.97;39.83;;;-0.90;93.00;;;;;;4990708;28;20225;-79
2021/01/20 03:19:39;;;;;;;79.97;39.90;;;-0.90;93.00;;;;;;4964562;28;20414;-78
2021/01/20 03:22:07;;;;;;;81.93;39.20;;;-0.80;93.00;;;;;;4980810;28;20197;-78
2021/01/20 03:24:35;;;;;;;85.10;39.37;;;-0.80;93.00;;;;;;4987605;28;20491;-78
2021/01/20 03:27:03;;;;;;;82.80;40.57;;;-0.90;93.00;;;;;;4973071;28;20201;-78
2021/01/20 03:29:30;;;;;;;79.20;39.70;;;-0.80;93.00;;;;;;4985437;28;20650;-79
2021/01/20 03:31:58;;;;;;;76.33;39.80;;;-0.80;93.00;;;;;;4980006;28;20613;-79
2021/01/20 03:34:26;;;;;;;88.00;38.50;;;-0.80;93.00;;;;;;4980004;28;20393;-79
2021/01/20 03:36:54;;;;;;;80.73;39.77;;;-0.70;93.00;;;;;;4988885;28;20201;-81
2021/01/20 03:39:22;;;;;;;72.50;37.40;;;-0.80;92.90;;;;;;4985397;28;20214;-81
2021/01/20 03:41:49;;;;;;;78.73;39.27;;;-0.80;92.90;;;;;;4977554;28;20217;-80
2021/01/20 03:44:17;;;;;;;76.40;39.30;;;-0.90;92.90;;;;;;5000739;28;20202;-78
2021/01/20 03:46:44;;;;;;;78.80;39.70;;;-0.80;92.90;;;;;;5002315;28;20247;-81
2021/01/20 03:49:12;;;;;;;74.00;39.20;;;-0.80;92.90;;;;;;4976548;28;20233;-79
2021/01/20 03:51:41;;;;;;;71.47;37.40;;;-0.80;92.90;;;;;;4981178;28;20224;-80
2021/01/20 03:54:10;;;;;;;76.13;38.70;;;-0.80;92.90;;;;;;4968463;28;20232;-80
2021/01/20 03:56:38;;;;;;;76.97;38.00;;;-0.70;92.90;;;;;;4970367;28;20212;-80
2021/01/20 03:59:06;;;;;;;80.17;41.23;;;-0.80;92.90;;;;;;4969873;28;20607;-79
2021/01/20 04:01:34;;;;;;;77.90;39.33;;;-0.80;92.90;;;;;;4978519;28;20228;-80
2021/01/20 04:04:02;;;;;;;71.23;36.67;;;-0.80;92.90;;;;;;4994217;28;20188;-79
2021/01/20 04:06:30;;;;;;;74.60;39.13;;;-0.80;92.90;;;;;;4992311;28;20246;-81
2021/01/20 04:08:57;;;;;;;74.33;39.10;;;-0.80;92.90;;;;;;4995846;28;20206;-80
2021/01/20 04:11:26;;;;;;;80.83;37.47;;;-0.80;92.90;;;;;;4985072;28;20324;-80
2021/01/20 04:13:54;;;;;;;81.97;40.47;;;-0.80;92.90;;;;;;4978428;28;20226;-79
2021/01/20 04:16:21;;;;;;;77.93;39.53;;;-0.80;92.90;;;;;;4985434;28;20194;-79
2021/01/20 04:18:49;;;;;;;86.37;41.40;;;-0.90;92.90;;;;;;4978891;28;21247;-79
2021/01/20 04:21:17;;;;;;;77.27;38.97;;;-0.80;93.00;;;;;;4982717;28;20209;-79
2021/01/20 04:23:45;;;;;;;71.07;37.90;;;-0.80;93.00;;;;;;4985375;28;20773;-78
2021/01/20 04:26:12;;;;;;;82.23;40.43;;;-0.80;93.00;;;;;;4983192;28;20701;-80
2021/01/20 04:28:42;;;;;;;83.00;40.20;;;-0.90;92.90;;;;;;4981149;28;20416;-79
2021/01/20 04:31:11;;;;;;;75.43;38.53;;;-0.80;93.00;;;;;;4986256;28;20228;-79
2021/01/20 04:33:38;;;;;;;74.57;38.50;;;-0.80;93.00;;;;;;4974317;28;20237;-79
2021/01/20 04:36:07;;;;;;;78.70;38.80;;;-0.80;93.00;;;;;;4964447;28;20208;-78
2021/01/20 04:38:35;;;;;;;78.17;39.70;;;-0.80;93.00;;;;;;4989567;28;20576;-77
2021/01/20 04:41:02;;;;;;;78.07;37.27;;;-0.80;93.00;;;;;;4992917;28;20269;-80
2021/01/20 04:43:30;;;;;;;79.27;40.57;;;-0.80;93.00;;;;;;5003297;28;20224;-79
2021/01/20 04:45:59;;;;;;;80.07;40.13;;;-0.80;93.00;;;;;;4980251;28;21095;-79
2021/01/20 04:48:31;;;;;;;81.00;39.27;;;-0.80;93.00;;;;;;4974864;28;20232;-78
2021/01/20 04:51:03;;;;;;;78.77;39.10;;;-0.80;93.00;;;;;;4970338;28;20348;-79
2021/01/20 04:53:32;;;;;;;75.47;38.33;;;-0.80;93.00;;;;;;4981242;28;20217;-79
2021/01/20 04:56:04;;;;;;;78.47;37.60;;;-0.80;93.00;;;;;;4979791;28;20202;-78
2021/01/20 04:58:32;;;;;;;83.40;39.33;;;-0.80;93.00;;;;;;4984573;28;20237;-78
2021/01/20 05:01:01;;;;;;;85.10;38.87;;;-0.80;93.10;;;;;;4981522;28;20211;-78
2021/01/20 05:03:30;;;;;;;88.93;40.37;;;-0.80;93.00;;;;;;4981981;28;20415;-79
2021/01/20 05:05:58;;;;;;;74.00;38.93;;;-0.60;93.10;;;;;;4976730;28;20223;-78
2021/01/20 05:08:26;;;;;;;71.00;36.27;;;-0.80;93.00;;;;;;4970756;28;20224;-77
2021/01/20 05:10:54;;;;;;;76.30;38.13;;;-0.70;93.10;;;;;;4982202;28;20229;-78
2021/01/20 05:13:26;;;;;;;87.03;39.37;;;-0.70;93.10;;;;;;4981122;28;20249;-81
2021/01/20 05:15:54;;;;;;;81.43;38.30;;;-0.70;93.20;;;;;;4978671;28;20230;-80
2021/01/20 05:18:23;;;;;;;83.33;40.10;;;-0.80;93.20;;;;;;4981264;28;20231;-78
2021/01/20 05:20:51;;;;;;;80.67;38.53;;;-0.70;93.30;;;;;;4988839;28;20206;-79
2021/01/20 05:23:25;;;;;;;80.67;38.47;;;-0.80;93.30;;;;;;4995615;28;20210;-78
2021/01/20 05:25:53;;;;;;;77.97;37.70;;;-0.90;93.20;;;;;;4984045;28;20211;-80
2021/01/20 05:28:23;;;;;;;74.43;38.20;;;-0.90;93.30;;;;;;4993565;28;20201;-79
2021/01/20 05:30:53;;;;;;;81.03;38.87;;;-0.90;93.30;;;;;;4989581;28;20226;-79
2021/01/20 05:33:24;;;;;;;75.80;38.03;;;-0.90;93.30;;;;;;4978550;28;20234;-79
2021/01/20 05:36:06;;;;;;;81.60;39.57;;;-0.90;93.20;;;;;;4989734;28;20192;-79
2021/01/20 05:38:39;;;;;;;81.87;39.20;;;-0.90;93.20;;;;;;4984579;28;20800;-79
2021/01/20 05:41:20;;;;;;;86.77;38.70;;;-0.90;93.20;;;;;;4982613;28;20283;-80
2021/01/20 05:43:49;;;;;;;81.07;41.27;;;-0.90;93.20;;;;;;4983978;28;20211;-78
2021/01/20 05:46:30;;;;;;;81.50;39.73;;;-0.70;93.30;;;;;;4982737;28;20223;-80
2021/01/20 05:48:59;;;;;;;84.47;38.97;;;-0.90;93.20;;;;;;4989766;28;20474;-78
2021/01/20 05:51:27;;;;;;;76.50;39.17;;;-0.80;93.20;;;;;;4986483;28;20232;-80
2021/01/20 05:53:55;;;;;;;88.97;40.43;;;-0.80;93.20;;;;;;4986692;28;20205;-80
2021/01/20 05:56:27;;;;;;;87.67;42.20;;;-0.80;93.20;;;;;;4986484;28;20233;-78
2021/01/20 05:58:55;;;;;;;88.80;42.40;;;-0.80;93.20;;;;;;4979668;28;20608;-79
2021/01/20 06:01:25;;;;;;;75.73;40.07;;;-0.70;93.20;;;;;;4981513;28;20510;-79
2021/01/20 06:03:53;;;;;;;86.23;41.70;;;-0.70;93.20;;;;;;4974930;28;20299;-80
2021/01/20 06:06:22;;;;;;;84.77;41.40;;;-0.70;93.20;;;;;;4996993;28;20781;-80
2021/01/20 06:08:50;;;;;;;81.43;39.80;;;-0.70;93.20;;;;;;4988066;28;20208;-79
2021/01/20 06:11:18;;;;;;;90.57;41.10;;;-0.70;93.20;;;;;;4988407;28;20469;-80
2021/01/20 06:13:46;;;;;;;81.97;41.13;;;-0.70;93.20;;;;;;4987498;28;20330;-79
2021/01/20 06:16:15;;;;;;;85.33;38.23;;;-0.70;93.20;;;;;;4975848;28;20233;-78
2021/01/20 06:18:48;;;;;;;81.67;40.10;;;-0.70;93.20;;;;;;4963273;28;20277;-79
2021/01/20 06:21:19;;;;;;;84.03;41.33;;;-0.70;93.20;;;;;;4982832;28;20214;-81
2021/01/20 06:23:55;;;;;;;76.87;39.00;;;-0.70;93.20;;;;;;4979088;28;20237;-81
2021/01/20 06:26:25;;;;;;;79.30;37.67;;;-0.70;93.20;;;;;;4972094;28;20205;-78
2021/01/20 06:29:01;;;;;;;83.47;41.53;;;-0.70;93.20;;;;;;4961411;28;20611;-79
2021/01/20 06:31:31;;;;;;;75.43;39.50;;;-0.60;93.20;;;;;;4977519;28;20299;-79
2021/01/20 06:34:04;;;;;;;82.73;39.90;;;-0.60;93.20;;;;;;4972630;28;20214;-81
2021/01/20 06:36:33;;;;;;;84.77;39.03;;;-0.60;93.20;;;;;;4979755;28;20239;-77
2021/01/20 06:39:23;;;;;;;85.50;40.57;;;-0.50;93.20;;;;;;4976568;28;20208;-78
2021/01/20 06:41:50;;;;;;;83.63;38.97;;;-0.60;93.20;;;;;;4963618;28;20210;-80
2021/01/20 06:44:18;;;;;;;75.63;38.20;;;-0.50;93.20;;;;;;4980787;28;20194;-80
2021/01/20 06:46:59;;;;;;;79.33;38.10;;;-0.50;93.20;;;;;;4987248;28;20525;-79
2021/01/20 06:49:31;;;;;;;77.17;40.53;;;-0.50;93.20;;;;;;4993720;28;20206;-77
2021/01/20 06:52:12;;;;;;;79.67;39.40;;;-0.40;93.20;;;;;;4985070;28;20206;-77
2021/01/20 06:54:42;;;;;;;76.33;38.37;;;-0.50;93.20;;;;;;4993137;28;20214;-80
2021/01/20 06:57:30;;;;;;;87.23;39.13;;;-0.30;93.20;;;;;;4983286;28;20206;-78
2021/01/20 07:00:21;;;;;;;84.90;40.43;;;-0.40;93.20;;;;;;4986480;28;20191;-79
2021/01/20 07:03:00;;;;;;;78.57;38.73;;;-0.40;93.20;;;;;;4999797;28;20219;-77
2021/01/20 07:05:36;;;;;;;84.00;38.43;;;-0.40;93.20;;;;;;4987417;28;20823;-78
2021/01/20 07:08:08;;;;;;;84.93;40.27;;;-0.30;93.20;;;;;;4969981;28;20227;-77
2021/01/20 07:11:07;;;;;;;79.13;39.87;;;-0.30;93.20;;;;;;4973485;28;20253;-79
2021/01/20 07:13:38;;;;;;;80.43;39.77;;;-0.20;93.30;;;;;;4972498;28;20623;-79
2021/01/20 07:16:10;;;;;;;82.47;39.77;;;-0.30;93.20;;;;;;4994032;28;20191;-79
2021/01/20 07:18:41;;;;;;;86.23;40.20;;;-0.20;93.30;;;;;;4975073;28;20217;-78
2021/01/20 07:21:09;;;;;;;77.93;39.77;;;-0.10;93.40;;;;;;4967195;28;20217;-79
2021/01/20 07:23:39;;;;;;;78.00;39.13;;;-0.10;93.30;;;;;;4963368;28;20198;-78
2021/01/20 07:26:09;;;;;;;78.70;38.90;;;-0.10;93.30;;;;;;4973915;28;20210;-76
2021/01/20 07:28:39;;;;;;;82.33;39.67;;;0.00;93.30;;;;;;4965775;28;20256;-78
2021/01/20 07:31:09;;;;;;;78.53;39.27;;;0.00;93.30;;;;;;4966434;28;20782;-80
2021/01/20 07:33:38;;;;;;;77.37;38.60;;;0.00;93.30;;;;;;4971069;28;20208;-76
2021/01/20 07:36:11;;;;;;;80.67;38.47;;;0.10;93.40;;;;;;4980203;28;20209;-78
2021/01/20 07:38:39;;;;;;;82.90;39.90;;;0.10;93.40;;;;;;4971652;28;20389;-78
2021/01/20 07:41:18;;;;;;;80.60;40.10;;;0.10;93.40;;;;;;4957822;28;20220;-79
2021/01/20 07:43:49;;;;;;;78.67;39.47;;;0.20;93.40;;;;;;4956748;28;20366;-79
2021/01/20 07:46:18;;;;;;;74.53;39.23;;;0.20;93.40;;;;;;4969828;28;20200;-78
2021/01/20 07:48:47;;;;;;;85.40;38.00;;;0.20;93.40;;;;;;4950761;28;20279;-79
2021/01/20 07:51:17;;;;;;;77.87;38.83;;;0.30;93.40;;;;;;4956803;28;20593;-79
2021/01/20 07:53:56;;;;;;;77.40;39.60;;;0.30;93.40;;;;;;4957023;28;21206;-77
2021/01/20 07:56:24;;;;;;;80.90;38.20;;;0.30;93.40;;;;;;4946859;28;20505;-80
2021/01/20 07:58:52;;;;;;;73.73;37.70;;;0.30;93.40;;;;;;4957313;28;20726;-77
2021/01/20 08:01:30;;;;;;;74.17;38.20;;;0.40;93.50;;;;;;4958995;28;20861;-79
2021/01/20 08:03:58;;;;;;;79.40;39.17;;;0.40;93.50;;;;;;4957977;28;20325;-80
2021/01/20 08:06:27;;;;;;;84.50;39.67;;;0.50;93.50;;;;;;4957673;28;20581;-77
2021/01/20 08:08:57;;;;;;;80.30;39.87;;;0.50;93.50;;;;;;4950608;28;20757;-77
2021/01/20 08:11:30;;;;;;;74.87;37.23;;;0.50;93.50;;;;;;4958290;28;20242;-77
2021/01/20 08:14:02;;;;;;;81.10;38.87;;;0.50;93.50;;;;;;4953188;28;20511;-76
2021/01/20 08:16:32;;;;;;;74.93;37.83;;;0.50;93.50;;;;;;4962539;28;20483;-75
2021/01/20 08:19:00;;;;;;;86.43;41.33;;;0.60;93.50;;;;;;4954498;28;21322;-79
2021/01/20 08:21:28;;;;;;;76.90;38.17;;;0.60;93.50;;;;;;4954615;28;20199;-76
2021/01/20 08:23:57;;;;;;;77.47;38.90;;;0.70;93.60;;;;;;4955471;28;20200;-78
2021/01/20 08:26:28;;;;;;;81.80;38.50;;;0.80;93.60;;;;;;4956286;28;20714;-80
2021/01/20 08:29:03;;;;;;;82.07;37.50;;;0.80;93.60;;;;;;4973644;28;20348;-79
2021/01/20 08:31:32;;;;;;;78.73;38.10;;;0.80;93.60;;;;;;4957917;28;20561;-77
2021/01/20 08:34:20;;;;;;;77.00;38.60;;;0.90;93.60;;;;;;4942418;28;20741;-79
2021/01/20 08:37:00;;;;;;;74.67;37.87;;;0.90;93.60;;;;;;4967356;28;20327;-78
2021/01/20 08:39:29;;;;;;;78.70;36.97;;;1.00;93.70;;;;;;4973963;28;20211;-79
2021/01/20 08:42:18;;;;;;;77.57;37.57;;;1.10;93.70;;;;;;4972944;28;20537;-78
2021/01/20 08:45:05;;;;;;;73.27;36.90;;;1.00;93.70;;;;;;4970850;28;20457;-80
2021/01/20 08:47:33;;;;;;;71.10;36.23;;;1.00;93.70;;;;;;4961379;28;20401;-79
2021/01/20 08:50:01;;;;;;;75.57;36.47;;;1.00;93.70;;;;;;4976237;28;20521;-80
2021/01/20 08:52:45;;;;;;;72.83;36.67;;;1.10;93.70;;;;;;4986475;28;20250;-79
2021/01/20 08:55:24;;;;;;;72.17;35.23;;;1.10;93.70;;;;;;4985422;28;20290;-77
2021/01/20 08:58:18;;;;;;;77.60;36.27;;;1.20;93.70;;;;;;4974696;28;20194;-77
2021/01/20 09:00:47;;;;;;;75.83;34.43;;;1.20;93.70;;;;;;4981342;28;20318;-80
2021/01/20 09:03:16;;;;;;;72.03;36.97;;;1.30;93.80;;;;;;4980328;28;20288;-77
2021/01/20 09:05:44;;;;;;;68.50;34.47;;;1.30;93.80;;;;;;4977549;28;20212;-78
2021/01/20 09:08:12;;;;;;;70.67;33.87;;;1.40;93.80;;;;;;4967413;28;20455;-79
2021/01/20 09:10:41;;;;;;;76.40;35.87;;;1.50;93.80;;;;;;4969881;28;20208;-79
2021/01/20 09:13:08;;;;;;;69.50;35.67;;;1.50;93.80;;;;;;4958675;28;20521;-80
2021/01/20 09:15:37;;;;;;;75.17;36.17;;;1.50;93.80;;;;;;4965225;28;20785;-77
2021/01/20 09:18:06;;;;;;;65.60;34.13;;;1.60;93.90;;;;;;4970911;28;20204;-79
2021/01/20 09:20:35;;;;;;;64.60;32.83;;;1.60;93.90;;;;;;4983084;28;20255;-80
2021/01/20 09:23:04;;;;;;;67.97;34.33;;;1.60;93.90;;;;;;4982926;28;20477;-82
2021/01/20 09:25:32;;;;;;;71.67;34.93;;;1.70;93.90;;;;;;4982725;28;20292;-78
2021/01/20 09:28:00;;;;;;;73.10;32.17;;;1.70;93.90;;;;;;4976913;28;20271;-80
2021/01/20 09:30:28;;;;;;;69.60;33.80;;;1.70;94.00;;;;;;4984584;28;20214;-78
2021/01/20 09:32:56;;;;;;;64.33;32.40;;;1.80;94.00;;;;;;4975700;28;20208;-81
2021/01/20 09:35:24;;;;;;;57.40;31.87;;;1.80;94.00;;;;;;4982071;28;20203;-80
2021/01/20 09:37:53;;;;;;;62.20;31.93;;;1.80;94.10;;;;;;4973114;28;20212;-81
2021/01/20 09:40:23;;;;;;;57.03;30.70;;;1.80;94.00;;;;;;4975500;28;20214;-79
2021/01/20 09:42:52;;;;;;;71.77;34.27;;;1.90;94.00;;;;;;4984520;28;20208;-81
2021/01/20 09:45:22;;;;;;;73.13;33.50;;;1.90;94.10;;;;;;4961753;28;20980;-80
2021/01/20 09:47:54;;;;;;;61.40;32.00;;;2.00;94.10;;;;;;4964245;28;20209;-82
2021/01/20 09:50:24;;;;;;;68.60;33.60;;;2.10;94.10;;;;;;4955516;28;20633;-80
2021/01/20 09:52:53;;;;;;;65.20;33.03;;;2.10;94.10;;;;;;4945728;28;20234;-78
2021/01/20 09:55:22;;;;;;;74.70;33.87;;;2.20;94.20;;;;;;4961236;28;20201;-78
2021/01/20 09:57:50;;;;;;;66.93;32.57;;;2.20;94.20;;;;;;4959112;28;20308;-81
2021/01/20 10:00:18;;;;;;;64.33;33.43;;;2.20;94.20;;;;;;4959807;28;20675;-80
2021/01/20 10:02:45;;;;;;;73.37;33.87;;;2.20;94.20;;;;;;4956711;28;20213;-80
2021/01/20 10:05:13;;;;;;;70.70;33.10;;;2.20;94.20;;;;;;4952377;28;20277;-80
2021/01/20 10:07:43;;;;;;;70.03;33.93;;;2.20;94.20;;;;;;4960935;28;22476;-81
2021/01/20 10:10:13;;;;;;;74.27;33.40;;;2.30;94.30;;;;;;4962996;28;20502;-80
2021/01/20 10:12:41;;;;;;;77.47;33.60;;;2.20;94.30;;;;;;4960466;28;20235;-81
2021/01/20 10:15:09;;;;;;;73.10;34.83;;;2.30;94.30;;;;;;4960732;28;20875;-78
2021/01/20 10:17:37;;;;;;;64.03;33.27;;;2.30;94.30;;;;;;4968977;28;20192;-80
2021/01/20 10:20:07;;;;;;;70.13;32.87;;;2.30;94.30;;;;;;4968771;28;20689;-79
2021/01/20 10:22:36;;;;;;;60.50;32.87;;;2.30;94.30;;;;;;4982138;28;20541;-81
2021/01/20 10:25:05;;;;;;;63.40;32.97;;;2.30;94.30;;;;;;4972512;28;20227;-79
2021/01/20 10:27:35;;;;;;;64.63;32.30;;;2.30;94.30;;;;;;4980901;28;20215;-79
2021/01/20 10:30:04;;;;;;;71.87;34.17;;;2.30;94.30;;;;;;4993813;28;20197;-80
2021/01/20 10:32:32;;;;;;;66.80;32.33;;;2.30;94.30;;;;;;4992759;28;20233;-80
2021/01/20 10:35:00;;;;;;;63.23;33.10;;;2.30;94.30;;;;;;4992958;28;20202;-80
2021/01/20 10:37:28;;;;;;;63.63;32.10;;;2.30;94.30;;;;;;4969262;28;20639;-80
2021/01/20 10:39:59;;;;;;;68.33;32.97;;;2.30;94.30;;;;;;4972112;28;20347;-78
2021/01/20 10:42:28;;;;;;;68.10;34.33;;;2.40;94.40;;;;;;4972537;28;20208;-79
2021/01/20 10:44:55;;;;;;;74.80;35.27;;;2.50;94.40;;;;;;4970345;28;20186;-81
2021/01/20 10:47:23;;;;;;;68.43;33.60;;;2.50;94.40;;;;;;4964878;28;20944;-80
2021/01/20 10:49:51;;;;;;;70.80;33.57;;;2.40;94.40;;;;;;4985820;28;20203;-79
2021/01/20 10:52:18;;;;;;;65.50;33.30;;;2.50;94.40;;;;;;4984257;28;20615;-81
2021/01/20 10:54:46;;;;;;;71.93;34.10;;;2.50;94.40;;;;;;4965936;28;20722;-80
2021/01/20 10:57:14;;;;;;;63.60;33.80;;;2.50;94.40;;;;;;4963251;28;20626;-82
2021/01/20 10:59:42;;;;;;;72.70;33.10;;;2.50;94.40;;;;;;4965888;28;20198;-81
2021/01/20 11:02:11;;;;;;;68.30;32.77;;;2.60;94.40;;;;;;4968408;28;20198;-81
2021/01/20 11:04:39;;;;;;;69.30;32.67;;;2.60;94.40;;;;;;4964938;28;20782;-82
2021/01/20 11:07:07;;;;;;;64.10;32.13;;;2.60;94.50;;;;;;4969625;28;20739;-78
2021/01/20 11:09:35;;;;;;;64.50;31.97;;;2.60;94.40;;;;;;4965039;28;20382;-81
2021/01/20 11:12:03;;;;;;;70.67;32.97;;;2.60;94.50;;;;;;4951117;28;20242;-81
2021/01/20 11:14:32;;;;;;;61.70;32.07;;;2.60;94.50;;;;;;4962114;28;20236;-80
2021/01/20 11:17:01;;;;;;;65.63;31.93;;;2.80;94.50;;;;;;4943301;28;20547;-81
2021/01/20 11:19:29;;;;;;;64.73;30.70;;;2.70;94.50;;;;;;4963924;28;20226;-81
2021/01/20 11:21:57;;;;;;;69.00;33.07;;;2.70;94.50;;;;;;4946045;28;20207;-78
2021/01/20 11:24:24;;;;;;;66.87;32.60;;;2.80;94.50;;;;;;4962447;28;20292;-80
2021/01/20 11:26:53;;;;;;;62.13;32.20;;;2.70;94.50;;;;;;4966647;28;20211;-81
2021/01/20 11:29:22;;;;;;;67.57;31.90;;;2.80;94.50;;;;;;4961289;28;20443;-80
2021/01/20 11:31:50;;;;;;;63.53;31.60;;;2.80;94.50;;;;;;4969304;28;20963;-81
2021/01/20 11:34:19;;;;;;;64.63;31.83;;;3.00;94.60;;;;;;4968162;28;20214;-80
2021/01/20 11:36:46;;;;;;;59.17;31.93;;;3.00;94.60;;;;;;4963516;28;20289;-81
2021/01/20 11:39:14;;;;;;;55.67;30.10;;;3.00;94.60;;;;;;4967752;28;20393;-81
2021/01/20 11:41:42;;;;;;;62.87;32.43;;;3.10;94.60;;;;;;4963325;28;20361;-79
2021/01/20 11:44:09;;;;;;;52.83;31.07;;;3.10;94.60;;;;;;4962261;28;20218;-80
2021/01/20 11:46:37;;;;;;;58.17;32.43;;;3.10;94.60;;;;;;4957336;28;20229;-80
2021/01/20 11:49:14;;;;;;;57.20;30.40;;;3.20;94.70;;;;;;4941882;28;20214;-82
2021/01/20 11:51:43;;;;;;;57.83;32.23;;;3.30;94.70;;;;;;4959430;28;21228;-80
2021/01/20 11:54:10;;;;;;;54.63;32.53;;;3.40;94.70;;;;;;4969560;28;20275;-80
2021/01/20 11:56:39;;;;;;;62.10;32.50;;;3.50;94.70;;;;;;4966893;28;20663;-79
2021/01/20 11:59:07;;;;;;;53.10;29.93;;;3.70;94.80;;;;;;4972199;28;20208;-80
2021/01/20 12:01:36;;;;;;;54.37;30.70;;;3.70;94.70;;;;;;4953224;28;20220;-83
2021/01/20 12:04:06;;;;;;;54.90;29.67;;;3.60;94.50;;;;;;4956348;28;20316;-80
2021/01/20 12:06:40;;;;;;;54.13;30.53;;;3.70;94.40;;;;;;4955957;28;20206;-81
2021/01/20 12:09:19;;;;;;;51.53;28.63;;;3.80;94.50;;;;;;4951059;28;20211;-79
2021/01/20 12:11:47;;;;;;;51.70;29.80;;;3.80;94.30;;;;;;4953107;28;20234;-81
2021/01/20 12:14:16;;;;;;;48.67;29.50;;;3.90;94.30;;;;;;4969409;28;20254;-81
2021/01/20 12:16:57;;;;;;;50.43;29.87;;;3.90;94.30;;;;;;4956751;28;20283;-80
2021/01/20 12:19:56;;;;;;;48.10;29.13;;;4.00;94.30;;;;;;4967451;28;20590;-80
2021/01/20 12:22:23;;;;;;;50.93;28.67;;;4.10;94.20;;;;;;4896556;29;20855;-79
2021/01/20 12:24:52;;;;;;;48.13;27.37;;;4.20;94.00;;;;;;4951210;28;20220;-82
2021/01/20 12:27:19;;;;;;;45.20;28.07;;;4.20;93.80;;;;;;4982316;28;20204;-80
2021/01/20 12:29:47;;;;;;;44.57;27.27;;;4.10;93.70;;;;;;4982906;28;20188;-82
2021/01/20 12:32:15;;;;;;;44.43;27.70;;;4.20;93.70;;;;;;4977386;28;20369;-81
2021/01/20 12:34:43;;;;;;;43.53;26.93;;;4.30;93.70;;;;;;4969072;28;20211;-81
2021/01/20 12:37:46;;;;;;;40.23;26.37;;;4.30;93.60;;;;;;4957928;28;20274;-82
2021/01/20 12:44:12;;;;;;;42.20;26.27;;;4.30;93.50;;;;;;4900580;28;20214;-80
2021/01/20 12:46:40;;;;;;;42.00;26.03;;;4.40;93.40;;;;;;4983508;28;20266;-81
2021/01/20 12:49:08;;;;;;;46.03;26.33;;;4.50;93.50;;;;;;4982943;28;20187;-81
2021/01/20 12:52:33;;;;;;;40.47;26.13;;;4.50;93.30;;;;;;4983138;28;20212;-81